Aérodrome :







RETROUVEZ-NOUS SUR...

 
LOGIN :

S'inscrire | Disclaimer

   EN    FR    IT 

 









Légende :    VFR   VFR Marginal   IFR   IFR Intensif   IFR Très Intensif
Visi : 
Plafond : 
>= 8 km
>= 3000ft
5 à 8 km
1000 à 3000 ft
1500m à 5 km
500 à 1000 ft
800 à 1500m
200 à 500 ft
< 800m
< 200 ft
Symboles :   Orages  Brouillard  Fortes neiges  Fortes précipitations  Vent > 20 kt






- Altitude de l'aérodrome : 20 ft
- Code IATA : BOS


KBOS - General Edward Lawrence Logan International

DERNIER METAR :
  • 071154Z 13004KT 10SM FEW050 FEW090 BKN150 OVC200 22/13 A3017 RMK AO2 SLP217 T02170133 10222 20194 53012

METARs EXPIRÉS :
  • 071054Z 36004KT 10SM BKN150 OVC200 21/12 A3016 RMK AO2 SLP211 T02110117
  • 070954Z 35005KT 10SM OVC150 21/13 A3015 RMK AO2 SLP207 BINOVC SE T02060128

TAF KBOS
Valide du 07 à 12h jusqu'au 08 à 18h UTC


071120Z 0712/0818 01006KT P6SM BKN250
FM080400 07004KT P6SM VCSH BKN060 OVC100
FM080900 04003KT 6SM BR VCSH OVC015
FM081600 05005KT P6SM BKN015
FIR KZBW / Amérique du Nord



MET'MAP, la Météo Aéronautique d'un coup d'oeil ! - Copyright ORBIFLY Décembre 2007 - Disclaimer

ORBIFLY MET'MAP TEAM :

Programmation & Développement : Alexandra Zaïnal
Sur une idée originale de : Baudouin d'Aumeries
Assistance à la programmation : Marc-Olivier Méhu
Soutien technique & logistique : Manuel Goepfert

Contact : metmap@orbifly.com




SOURCES & CREDITS :

   NOAA